Time;durP1;ratioP1;P1;durP2;ratioP2;P2;SDS_P1;SDS_P2;PMS_P1;PMS_P2;Temp;Humidity;BMP_temperature;BMP_pressure;BME280_temperature;BME280_humidity;BME280_pressure;Samples;Min_cycle;Max_cycle;Signal;HPM_P1;HPM_P2
2023/11/30 00:02:05;;;;;;;13.20;5.70;;;;;;;;;;4974796;28;19952;-93
2023/11/30 00:04:50;;;;;;;12.88;6.47;;;;;;;;;;4974442;28;20058;-92
2023/11/30 00:07:31;;;;;;;7.67;4.50;;;;;;;;;;4960547;28;20141;-92
2023/11/30 00:10:13;;;;;;;12.30;6.20;;;;;;;;;;4963050;28;20071;-92
2023/11/30 00:23:14;;;;;;;10.55;5.68;;;;;;;;;;4949458;29;20437;-92
2023/11/30 00:25:51;;;;;;;14.15;5.95;;;;;;;;;;4935991;29;20052;-92
2023/11/30 00:28:35;;;;;;;15.32;5.90;;;;;;;;;;4936026;29;20074;-92
2023/11/30 00:31:15;;;;;;;12.10;6.25;;;;;;;;;;4947176;29;20126;-93
2023/11/30 00:33:57;;;;;;;16.83;5.50;;;;;;;;;;4935695;29;20060;-91
2023/11/30 00:36:38;;;;;;;10.60;5.80;;;;;;;;;;4933840;29;20079;-91
2023/11/30 00:39:19;;;;;;;10.02;6.38;;;;;;;;;;4935122;29;20060;-90
2023/11/30 00:42:03;;;;;;;17.85;5.78;;;;;;;;;;4948308;29;20082;-92
2023/11/30 00:44:44;;;;;;;15.15;6.18;;;;;;;;;;4934203;29;20102;-92
2023/11/30 00:47:25;;;;;;;12.02;5.75;;;;;;;;;;4934467;29;20064;-92
2023/11/30 00:50:07;;;;;;;12.10;5.78;;;;;;;;;;4935311;29;20075;-91
2023/11/30 00:52:48;;;;;;;14.02;6.97;;;;;;;;;;4936085;29;20130;-91
2023/11/30 00:55:29;;;;;;;10.93;6.28;;;;;;;;;;4937290;29;20316;-92
2023/11/30 00:58:10;;;;;;;14.05;5.70;;;;;;;;;;4956552;29;20020;-91
2023/11/30 01:00:52;;;;;;;10.30;5.35;;;;;;;;;;4934611;29;20039;-92
2023/11/30 01:03:33;;;;;;;10.13;6.22;;;;;;;;;;4937781;29;20100;-91
2023/11/30 01:06:15;;;;;;;14.05;5.57;;;;;;;;;;4938513;29;20078;-92
2023/11/30 01:08:56;;;;;;;12.25;6.25;;;;;;;;;;4939672;29;20069;-93
2023/11/30 01:11:44;;;;;;;14.50;5.85;;;;;;;;;;4954319;29;20048;-92
2023/11/30 01:14:25;;;;;;;17.85;6.57;;;;;;;;;;4939998;29;20075;-91
2023/11/30 01:16:58;;;;;;;10.93;5.65;;;;;;;;;;4955959;29;20098;-92
2023/11/30 01:19:40;;;;;;;19.65;5.80;;;;;;;;;;4939426;29;20052;-92
2023/11/30 01:22:22;;;;;;;13.43;5.90;;;;;;;;;;4927300;29;20064;-92
2023/11/30 01:24:53;;;;;;;15.82;5.57;;;;;;;;;;4936208;29;20115;-92
2023/11/30 01:27:33;;;;;;;12.57;5.53;;;;;;;;;;4936261;29;20074;-93
2023/11/30 01:30:15;;;;;;;14.43;5.43;;;;;;;;;;4936990;29;20504;-92
2023/11/30 01:32:56;;;;;;;12.25;4.88;;;;;;;;;;4919576;29;20048;-92
2023/11/30 01:35:28;;;;;;;7.97;4.65;;;;;;;;;;4919573;29;20052;-92
2023/11/30 01:38:11;;;;;;;24.13;6.47;;;;;;;;;;4920757;29;20052;-92
2023/11/30 01:40:52;;;;;;;9.30;5.20;;;;;;;;;;4921856;29;20054;-92
2023/11/30 01:43:33;;;;;;;15.77;5.78;;;;;;;;;;4935008;29;20171;-91
2023/11/30 01:46:17;;;;;;;11.82;6.47;;;;;;;;;;4935033;29;20059;-93
2023/11/30 01:48:59;;;;;;;14.65;6.85;;;;;;;;;;4923253;29;20048;-92
2023/11/30 01:51:43;;;;;;;11.52;5.90;;;;;;;;;;4921700;29;20080;-91
2023/11/30 01:54:20;;;;;;;10.43;5.63;;;;;;;;;;4920805;29;20070;-92
2023/11/30 01:56:52;;;;;;;10.52;5.15;;;;;;;;;;4936421;29;20084;-91
2023/11/30 01:59:35;;;;;;;8.27;4.85;;;;;;;;;;4931866;29;20064;-92
2023/11/30 02:02:16;;;;;;;11.85;5.40;;;;;;;;;;4936001;29;20051;-92
2023/11/30 02:04:57;;;;;;;12.60;5.25;;;;;;;;;;4935152;29;20052;-92
2023/11/30 02:07:41;;;;;;;13.98;5.05;;;;;;;;;;4935475;29;20440;-92
2023/11/30 02:10:23;;;;;;;8.80;5.18;;;;;;;;;;4936510;29;20064;-91
2023/11/30 02:13:00;;;;;;;11.20;5.35;;;;;;;;;;4922801;29;20067;-91
2023/11/30 02:15:44;;;;;;;12.10;5.82;;;;;;;;;;4922030;29;20063;-92
2023/11/30 02:18:29;;;;;;;10.77;4.95;;;;;;;;;;4921965;29;20099;-92
2023/11/30 02:21:37;;;;;;;9.45;5.20;;;;;;;;;;4942302;29;20059;-91
2023/11/30 02:24:26;;;;;;;13.48;6.40;;;;;;;;;;4940694;29;20035;-92
2023/11/30 02:27:13;;;;;;;12.63;5.30;;;;;;;;;;4943540;29;20047;-93
2023/11/30 02:29:53;;;;;;;9.60;5.15;;;;;;;;;;4939733;29;20052;-91
2023/11/30 02:32:34;;;;;;;9.73;5.75;;;;;;;;;;4953920;29;20083;-92
2023/11/30 02:35:16;;;;;;;9.95;5.28;;;;;;;;;;4960930;29;20044;-91
2023/11/30 02:38:03;;;;;;;12.00;5.88;;;;;;;;;;4945106;29;20040;-92
2023/11/30 02:40:44;;;;;;;6.88;3.55;;;;;;;;;;4938461;29;20035;-93
2023/11/30 02:43:28;;;;;;;10.98;4.85;;;;;;;;;;4938968;29;20050;-92
2023/11/30 02:46:09;;;;;;;8.60;4.72;;;;;;;;;;4952225;29;20132;-92
2023/11/30 02:48:55;;;;;;;10.45;6.05;;;;;;;;;;4939148;29;20110;-93
2023/11/30 02:51:31;;;;;;;14.35;6.20;;;;;;;;;;4953245;29;20066;-92
2023/11/30 02:54:13;;;;;;;13.98;5.57;;;;;;;;;;4938565;29;20385;-93
2023/11/30 02:56:55;;;;;;;9.60;5.07;;;;;;;;;;4938644;29;20089;-91
2023/11/30 02:59:39;;;;;;;10.50;5.68;;;;;;;;;;4940036;29;20483;-92
2023/11/30 03:02:19;;;;;;;10.48;5.18;;;;;;;;;;4939129;29;20060;-91
2023/11/30 03:05:00;;;;;;;9.55;4.30;;;;;;;;;;4939081;29;20114;-92
2023/11/30 03:07:48;;;;;;;10.32;5.78;;;;;;;;;;4946639;29;20066;-92
2023/11/30 03:10:38;;;;;;;12.15;4.50;;;;;;;;;;4952244;29;20119;-92
2023/11/30 03:13:19;;;;;;;14.65;5.47;;;;;;;;;;4937280;29;20048;-92
2023/11/30 03:16:03;;;;;;;6.28;3.67;;;;;;;;;;4953708;29;20058;-91
2023/11/30 03:18:44;;;;;;;9.02;4.97;;;;;;;;;;4939746;29;20118;-91
2023/11/30 03:21:30;;;;;;;7.65;5.00;;;;;;;;;;4955187;29;20051;-90
2023/11/30 03:24:17;;;;;;;15.88;5.55;;;;;;;;;;4956121;29;20185;-92
2023/11/30 03:27:02;;;;;;;12.05;5.32;;;;;;;;;;4942225;29;20043;-91
2023/11/30 03:29:44;;;;;;;12.23;6.03;;;;;;;;;;4941396;29;20058;-90
2023/11/30 03:32:24;;;;;;;9.82;5.53;;;;;;;;;;4941646;29;20059;-92
2023/11/30 03:35:05;;;;;;;11.00;5.43;;;;;;;;;;4938388;29;20148;-92
2023/11/30 03:37:46;;;;;;;8.05;4.22;;;;;;;;;;4951487;29;20099;-92
2023/11/30 03:40:27;;;;;;;8.20;4.30;;;;;;;;;;4953125;29;20080;-92
2023/11/30 03:43:09;;;;;;;13.38;5.10;;;;;;;;;;4939227;28;20082;-92
2023/11/30 03:45:49;;;;;;;12.85;5.78;;;;;;;;;;4938436;29;20047;-93
2023/11/30 03:48:34;;;;;;;12.18;6.20;;;;;;;;;;4957118;28;20052;-91
2023/11/30 03:51:18;;;;;;;8.10;5.38;;;;;;;;;;4955282;29;20050;-93
2023/11/30 03:53:59;;;;;;;14.45;5.45;;;;;;;;;;4941867;29;20109;-92
2023/11/30 03:56:40;;;;;;;15.02;4.55;;;;;;;;;;4952939;29;20082;-93
2023/11/30 03:59:22;;;;;;;16.17;5.45;;;;;;;;;;4953154;29;20048;-91
2023/11/30 04:02:08;;;;;;;10.27;5.20;;;;;;;;;;4938278;29;20046;-93
2023/11/30 04:04:48;;;;;;;9.43;5.43;;;;;;;;;;4937311;29;20052;-92
2023/11/30 04:07:29;;;;;;;7.80;4.68;;;;;;;;;;4953115;29;20059;-92
2023/11/30 04:10:11;;;;;;;15.45;5.60;;;;;;;;;;4937059;29;20142;-93
2023/11/30 04:12:44;;;;;;;10.20;6.35;;;;;;;;;;4929876;29;20059;-92
2023/11/30 04:15:26;;;;;;;9.23;6.05;;;;;;;;;;4938233;29;20048;-92
2023/11/30 04:18:08;;;;;;;9.38;5.45;;;;;;;;;;4938453;29;20047;-92
2023/11/30 04:20:50;;;;;;;8.02;5.25;;;;;;;;;;4940733;29;20039;-91
2023/11/30 04:23:31;;;;;;;13.95;6.53;;;;;;;;;;4922409;29;20066;-92
2023/11/30 04:26:13;;;;;;;13.63;7.32;;;;;;;;;;4938406;29;20110;-95
2023/11/30 04:28:54;;;;;;;13.98;5.78;;;;;;;;;;4924218;29;20040;-92
2023/11/30 04:31:37;;;;;;;19.23;6.53;;;;;;;;;;4938471;29;20047;-92
2023/11/30 05:05:29;;;;;;;33.72;8.80;;;;;;;;;;5878235;23;20059;-92
2023/11/30 05:08:10;;;;;;;20.00;6.68;;;;;;;;;;4955022;29;20063;-93
2023/11/30 05:10:55;;;;;;;25.83;6.50;;;;;;;;;;4971305;28;20062;-92
2023/11/30 05:13:36;;;;;;;13.38;7.03;;;;;;;;;;4954183;29;20057;-92
2023/11/30 05:16:16;;;;;;;15.70;6.93;;;;;;;;;;4957576;29;20047;-92
2023/11/30 05:18:57;;;;;;;18.73;8.48;;;;;;;;;;4958498;28;20050;-92
2023/11/30 05:21:38;;;;;;;19.52;6.85;;;;;;;;;;4957297;28;20062;-92
2023/11/30 05:24:19;;;;;;;11.02;5.45;;;;;;;;;;4971043;29;20063;-93
2023/11/30 05:27:02;;;;;;;18.63;6.63;;;;;;;;;;4954213;28;20106;-93
2023/11/30 05:29:44;;;;;;;11.20;5.57;;;;;;;;;;4954479;29;20082;-92
2023/11/30 05:32:21;;;;;;;11.50;4.95;;;;;;;;;;4957097;29;20063;-92
2023/11/30 05:34:59;;;;;;;11.50;5.50;;;;;;;;;;4958755;29;20054;-91
2023/11/30 05:37:40;;;;;;;15.63;7.03;;;;;;;;;;4961294;29;20047;-92
2023/11/30 05:40:21;;;;;;;15.43;6.68;;;;;;;;;;4976770;28;20159;-92
2023/11/30 05:43:02;;;;;;;16.58;7.18;;;;;;;;;;4956061;28;20454;-92
2023/11/30 05:45:44;;;;;;;16.27;7.10;;;;;;;;;;4956008;28;20054;-92
2023/11/30 05:48:24;;;;;;;19.38;8.00;;;;;;;;;;4955283;28;20043;-91
2023/11/30 05:51:08;;;;;;;15.15;7.55;;;;;;;;;;4972466;28;20055;-93
2023/11/30 05:53:48;;;;;;;17.13;6.30;;;;;;;;;;4958268;29;20099;-92
2023/11/30 05:56:29;;;;;;;10.18;6.00;;;;;;;;;;4959410;29;20031;-92
2023/11/30 05:59:13;;;;;;;13.18;6.50;;;;;;;;;;4975605;28;20039;-92
2023/11/30 06:01:54;;;;;;;23.02;5.65;;;;;;;;;;4964014;28;20067;-92
2023/11/30 06:04:36;;;;;;;10.88;5.20;;;;;;;;;;4958946;29;20039;-92
2023/11/30 06:07:20;;;;;;;20.33;5.70;;;;;;;;;;4970745;28;20465;-91
2023/11/30 06:10:06;;;;;;;6.80;4.07;;;;;;;;;;4956781;29;20063;-91
2023/11/30 06:12:48;;;;;;;15.80;7.03;;;;;;;;;;4955608;29;20091;-91
2023/11/30 06:15:30;;;;;;;10.93;5.53;;;;;;;;;;4955599;29;20035;-91
2023/11/30 06:18:12;;;;;;;11.30;4.43;;;;;;;;;;4954625;29;20051;-91
2023/11/30 06:20:54;;;;;;;14.48;6.50;;;;;;;;;;4950494;28;20101;-91
2023/11/30 06:23:35;;;;;;;11.30;5.78;;;;;;;;;;4958414;29;20058;-89
2023/11/30 06:26:16;;;;;;;14.60;5.15;;;;;;;;;;4959213;28;20039;-91
2023/11/30 06:29:03;;;;;;;13.63;6.32;;;;;;;;;;4968851;28;20055;-91
2023/11/30 06:31:45;;;;;;;15.27;6.07;;;;;;;;;;4971788;29;20595;-91
2023/11/30 06:34:26;;;;;;;10.23;5.45;;;;;;;;;;4954148;29;20091;-92
2023/11/30 06:37:06;;;;;;;11.88;4.68;;;;;;;;;;4954646;28;20070;-91
2023/11/30 06:39:47;;;;;;;13.02;5.85;;;;;;;;;;4953772;29;20087;-91
2023/11/30 06:42:26;;;;;;;18.00;5.93;;;;;;;;;;4960916;28;20051;-92
2023/11/30 06:45:07;;;;;;;18.05;6.03;;;;;;;;;;4958321;29;20183;-91
2023/11/30 06:47:47;;;;;;;26.10;4.15;;;;;;;;;;4958230;29;20047;-91
2023/11/30 06:50:29;;;;;;;9.35;4.10;;;;;;;;;;4954507;29;20503;-91
2023/11/30 06:53:09;;;;;;;7.88;5.22;;;;;;;;;;4953080;29;20059;-90
2023/11/30 06:55:42;;;;;;;12.52;5.85;;;;;;;;;;4951963;29;20078;-93
2023/11/30 06:58:26;;;;;;;;;;;;;;;;;;4955412;28;20071;-91
2023/11/30 07:01:09;;;;;;;11.60;6.03;;;;;;;;;;4953218;28;20191;-91
2023/11/30 07:03:40;;;;;;;10.73;4.95;;;;;;;;;;4968728;28;20376;-91
2023/11/30 07:06:22;;;;;;;11.05;4.65;;;;;;;;;;4948284;29;20099;-92
2023/11/30 07:08:52;;;;;;;16.80;6.30;;;;;;;;;;4968418;28;20066;-92
2023/11/30 07:11:35;;;;;;;14.82;8.73;;;;;;;;;;4968923;28;20051;-92
2023/11/30 07:14:16;;;;;;;12.88;5.50;;;;;;;;;;4954805;29;20059;-92
2023/11/30 07:17:00;;;;;;;12.40;6.15;;;;;;;;;;4968667;28;20202;-92
2023/11/30 07:19:46;;;;;;;17.33;6.85;;;;;;;;;;4952863;28;20237;-92
2023/11/30 07:22:28;;;;;;;23.90;6.05;;;;;;;;;;4952913;29;20130;-91
2023/11/30 07:25:10;;;;;;;11.55;5.65;;;;;;;;;;4967700;28;20435;-92
2023/11/30 07:27:53;;;;;;;16.45;7.35;;;;;;;;;;4953864;29;20070;-91
2023/11/30 07:30:41;;;;;;;20.88;7.68;;;;;;;;;;4952977;29;20043;-91
2023/11/30 07:33:24;;;;;;;22.52;5.75;;;;;;;;;;4966508;28;20050;-91
2023/11/30 07:36:10;;;;;;;27.10;8.63;;;;;;;;;;4953997;28;20043;-92
2023/11/30 07:38:52;;;;;;;13.80;6.63;;;;;;;;;;4953455;28;20110;-91
2023/11/30 07:41:33;;;;;;;8.20;4.05;;;;;;;;;;4953997;28;20051;-91
2023/11/30 07:44:15;;;;;;;13.90;6.28;;;;;;;;;;4968092;28;20043;-91
2023/11/30 07:46:56;;;;;;;13.95;6.85;;;;;;;;;;4952663;29;20098;-91
2023/11/30 07:49:36;;;;;;;14.95;6.18;;;;;;;;;;4953908;28;20058;-92
2023/11/30 07:52:17;;;;;;;15.70;6.00;;;;;;;;;;4952568;29;20043;-91
2023/11/30 07:55:01;;;;;;;23.92;6.30;;;;;;;;;;4968365;28;20078;-90
2023/11/30 07:57:41;;;;;;;11.98;5.00;;;;;;;;;;4952293;28;20293;-92
2023/11/30 16:33:08;;;;;;;19.77;6.90;;;;;;;;;;5377403;23;20110;-91
2023/11/30 16:35:52;;;;;;;24.05;7.93;;;;;;;;;;4968843;28;20120;-88
2023/11/30 16:38:33;;;;;;;17.45;6.60;;;;;;;;;;4981359;28;20659;-90
2023/11/30 16:41:03;;;;;;;16.42;6.80;;;;;;;;;;4966177;28;20058;-90
2023/11/30 16:43:44;;;;;;;19.08;6.38;;;;;;;;;;4967862;28;20094;-90
2023/11/30 16:46:37;;;;;;;12.65;6.78;;;;;;;;;;4966370;28;20051;-90
2023/11/30 16:49:21;;;;;;;20.55;8.45;;;;;;;;;;4970735;28;20054;-91
2023/11/30 16:52:25;;;;;;;14.98;6.65;;;;;;;;;;4966583;28;20090;-91
2023/11/30 16:55:12;;;;;;;11.00;5.30;;;;;;;;;;4967763;28;20054;-91
2023/11/30 16:58:03;;;;;;;20.73;8.68;;;;;;;;;;4956952;28;20074;-90
2023/11/30 17:00:55;;;;;;;13.07;5.60;;;;;;;;;;4962068;28;20030;-91
2023/11/30 17:04:14;;;;;;;18.75;7.60;;;;;;;;;;4976715;28;20061;-91
2023/11/30 17:06:55;;;;;;;16.65;8.57;;;;;;;;;;4983640;28;20034;-91
2023/11/30 17:09:47;;;;;;;16.98;8.02;;;;;;;;;;4966088;28;20054;-90
2023/11/30 17:13:07;;;;;;;;;;;;;;;;;;;;;
2023/11/30 17:15:55;;;;;;;14.57;7.43;;;;;;;;;;4987907;28;20146;-90
2023/11/30 17:18:44;;;;;;;22.92;7.65;;;;;;;;;;4970477;28;20145;-90
2023/11/30 17:21:25;;;;;;;21.10;8.48;;;;;;;;;;4971467;28;20089;-90
2023/11/30 17:24:26;;;;;;;19.50;8.43;;;;;;;;;;4987183;28;20090;-90
2023/11/30 17:27:10;;;;;;;12.55;6.72;;;;;;;;;;4982789;28;20104;-90
2023/11/30 17:30:33;;;;;;;;;;;;;;;;;;;;;
2023/11/30 17:39:51;;;;;;;18.08;7.97;;;;;;;;;;4963030;28;20239;-91
2023/11/30 17:42:34;;;;;;;26.40;8.82;;;;;;;;;;4986859;28;20082;-92
2023/11/30 17:45:09;;;;;;;18.90;8.15;;;;;;;;;;4986532;28;20058;-92
2023/11/30 17:47:43;;;;;;;21.92;8.63;;;;;;;;;;4975463;28;20058;-92
2023/11/30 17:50:20;;;;;;;17.63;7.28;;;;;;;;;;4975704;28;20145;-92
2023/11/30 17:53:05;;;;;;;21.95;7.75;;;;;;;;;;4975851;28;20077;-92
2023/11/30 17:55:52;;;;;;;21.45;8.32;;;;;;;;;;4976123;28;20121;-92
2023/11/30 17:58:33;;;;;;;22.20;8.43;;;;;;;;;;4974341;28;20027;-92
2023/11/30 18:01:15;;;;;;;25.30;9.75;;;;;;;;;;4975564;28;20043;-92
2023/11/30 18:03:46;;;;;;;15.23;7.63;;;;;;;;;;4975831;28;20042;-91
2023/11/30 18:06:27;;;;;;;24.00;9.13;;;;;;;;;;4975013;28;20039;-93
2023/11/30 18:09:09;;;;;;;24.48;9.98;;;;;;;;;;4988423;28;20055;-93
2023/11/30 18:11:41;;;;;;;26.48;10.45;;;;;;;;;;4974150;28;20118;-92
2023/11/30 18:14:31;;;;;;;22.25;10.40;;;;;;;;;;4974126;28;20612;-92
2023/11/30 18:17:26;;;;;;;19.25;9.77;;;;;;;;;;4975621;28;20081;-91
2023/11/30 18:20:07;;;;;;;19.67;9.85;;;;;;;;;;4974243;28;20082;-92
2023/11/30 18:22:48;;;;;;;16.00;6.32;;;;;;;;;;4977071;28;20039;-91
2023/11/30 18:25:25;;;;;;;22.13;8.60;;;;;;;;;;4982374;28;20118;-91
2023/11/30 18:27:57;;;;;;;20.50;8.65;;;;;;;;;;4982468;28;20074;-91
2023/11/30 18:30:31;;;;;;;17.75;9.75;;;;;;;;;;4981933;28;20055;-92
2023/11/30 18:33:12;;;;;;;15.35;7.38;;;;;;;;;;4982295;28;20086;-92
2023/11/30 18:35:43;;;;;;;23.38;10.30;;;;;;;;;;4980768;28;20061;-92
2023/11/30 18:38:24;;;;;;;20.80;8.75;;;;;;;;;;4995843;28;20045;-92
2023/11/30 18:41:19;;;;;;;18.98;8.35;;;;;;;;;;4996636;28;20103;-93
2023/11/30 18:43:57;;;;;;;21.67;9.27;;;;;;;;;;4982443;28;20077;-92
2023/11/30 18:46:38;;;;;;;23.20;9.77;;;;;;;;;;4981517;28;20038;-92
2023/11/30 18:49:15;;;;;;;18.75;9.68;;;;;;;;;;4980997;28;20094;-92
2023/11/30 18:51:46;;;;;;;23.70;10.10;;;;;;;;;;4993883;28;20069;-92
2023/11/30 18:54:23;;;;;;;15.90;8.23;;;;;;;;;;4981048;28;20473;-92
2023/11/30 18:56:53;;;;;;;21.00;8.93;;;;;;;;;;4977797;28;20489;-92
2023/11/30 18:59:33;;;;;;;27.70;7.75;;;;;;;;;;4974133;28;20126;-91
2023/11/30 19:02:17;;;;;;;19.05;9.68;;;;;;;;;;4977674;28;20042;-92
2023/11/30 19:04:55;;;;;;;20.38;9.57;;;;;;;;;;4981489;28;20069;-92
2023/11/30 19:13:41;;;;;;;19.83;9.68;;;;;;;;;;5066276;28;20037;-92
2023/11/30 19:16:22;;;;;;;26.15;10.73;;;;;;;;;;5066375;28;20056;-92
2023/11/30 19:19:03;;;;;;;15.15;7.70;;;;;;;;;;5068714;28;20029;-91
2023/11/30 19:21:52;;;;;;;20.08;8.32;;;;;;;;;;5064185;28;20041;-92
2023/11/30 19:24:34;;;;;;;16.92;8.32;;;;;;;;;;5066676;28;20037;-92
2023/11/30 19:27:15;;;;;;;17.02;7.47;;;;;;;;;;5064244;28;20033;-92
2023/11/30 19:29:59;;;;;;;21.55;8.80;;;;;;;;;;5064105;28;20101;-92
2023/11/30 19:32:40;;;;;;;19.38;8.23;;;;;;;;;;5064508;28;20065;-92
2023/11/30 19:35:21;;;;;;;18.25;7.65;;;;;;;;;;5067353;28;20025;-91
2023/11/30 19:38:02;;;;;;;19.25;8.38;;;;;;;;;;5064790;28;20048;-92
2023/11/30 19:40:46;;;;;;;25.52;10.52;;;;;;;;;;5065334;28;20044;-93
2023/11/30 19:43:30;;;;;;;13.18;6.65;;;;;;;;;;5064949;28;20029;-92
2023/11/30 19:46:15;;;;;;;20.70;9.10;;;;;;;;;;5066001;28;20037;-91
2023/11/30 19:48:58;;;;;;;19.20;7.45;;;;;;;;;;5067159;28;20072;-92
2023/11/30 19:51:40;;;;;;;17.73;8.45;;;;;;;;;;5064599;28;20425;-92
2023/11/30 19:54:23;;;;;;;15.75;7.72;;;;;;;;;;5065822;28;20052;-92
2023/11/30 19:57:04;;;;;;;19.60;7.88;;;;;;;;;;5068061;28;20072;-92
2023/11/30 19:59:45;;;;;;;18.40;7.63;;;;;;;;;;5083751;28;20072;-91
2023/11/30 20:02:26;;;;;;;19.85;8.25;;;;;;;;;;5070196;28;20029;-92
2023/11/30 20:05:07;;;;;;;15.75;7.72;;;;;;;;;;5065131;28;20096;-92
2023/11/30 20:07:49;;;;;;;18.80;8.70;;;;;;;;;;5062106;28;20045;-92
2023/11/30 20:10:30;;;;;;;18.13;8.25;;;;;;;;;;5060821;28;20088;-90
2023/11/30 20:13:14;;;;;;;16.23;7.03;;;;;;;;;;5063717;28;20064;-92
2023/11/30 20:15:55;;;;;;;17.55;7.68;;;;;;;;;;5078570;28;20049;-91
2023/11/30 20:18:38;;;;;;;13.07;6.03;;;;;;;;;;5054561;28;20038;-92
2023/11/30 20:21:23;;;;;;;12.82;6.25;;;;;;;;;;5053106;28;20088;-92
2023/11/30 20:24:06;;;;;;;16.50;7.30;;;;;;;;;;5051604;28;20104;-93
2023/11/30 20:26:47;;;;;;;15.35;6.25;;;;;;;;;;5051217;28;20148;-92
2023/11/30 20:29:31;;;;;;;14.95;5.85;;;;;;;;;;5051393;28;20044;-92
2023/11/30 20:32:11;;;;;;;17.92;8.43;;;;;;;;;;5049680;28;20050;-91
2023/11/30 20:34:52;;;;;;;14.48;6.55;;;;;;;;;;5050638;28;20117;-92
2023/11/30 20:37:34;;;;;;;17.55;6.78;;;;;;;;;;5049517;28;20053;-91
2023/11/30 20:40:15;;;;;;;14.70;7.75;;;;;;;;;;5050995;28;20113;-92
2023/11/30 20:42:56;;;;;;;17.13;7.25;;;;;;;;;;5049559;28;20067;-92
2023/11/30 20:45:37;;;;;;;19.85;9.10;;;;;;;;;;5049756;28;20086;-92
2023/11/30 20:48:19;;;;;;;19.73;9.27;;;;;;;;;;5049172;28;20037;-92
2023/11/30 20:51:00;;;;;;;18.77;8.70;;;;;;;;;;5051377;28;20081;-90
2023/11/30 20:53:42;;;;;;;17.98;8.77;;;;;;;;;;5051800;28;20042;-92
2023/11/30 20:56:25;;;;;;;16.75;7.55;;;;;;;;;;4999725;28;20085;-92
2023/11/30 20:59:06;;;;;;;15.25;8.32;;;;;;;;;;5040208;28;20079;-92
2023/11/30 21:01:47;;;;;;;17.10;7.97;;;;;;;;;;5050886;28;20038;-92
2023/11/30 21:04:29;;;;;;;17.13;6.07;;;;;;;;;;5051004;28;20089;-92
2023/11/30 21:07:18;;;;;;;12.98;5.95;;;;;;;;;;5049211;28;20052;-93
2023/11/30 21:10:01;;;;;;;23.33;9.20;;;;;;;;;;5052889;28;20037;-92
2023/11/30 21:12:47;;;;;;;14.48;7.80;;;;;;;;;;5051991;28;20126;-92
2023/11/30 21:15:28;;;;;;;26.70;9.63;;;;;;;;;;5063493;28;20117;-92
2023/11/30 21:18:03;;;;;;;25.52;9.13;;;;;;;;;;5051736;28;20053;-92
2023/11/30 21:20:51;;;;;;;18.42;8.63;;;;;;;;;;5050514;28;20060;-91
2023/11/30 21:23:34;;;;;;;16.80;6.75;;;;;;;;;;5048589;28;20052;-90
2023/11/30 21:26:17;;;;;;;16.83;7.57;;;;;;;;;;5051547;28;20052;-91
2023/11/30 21:29:01;;;;;;;17.10;7.63;;;;;;;;;;5051840;28;20041;-92
2023/11/30 21:31:42;;;;;;;13.02;6.53;;;;;;;;;;5047702;28;20410;-92
2023/11/30 21:34:23;;;;;;;18.15;8.25;;;;;;;;;;5047673;28;20072;-91
2023/11/30 21:37:04;;;;;;;16.92;8.05;;;;;;;;;;5047873;28;20052;-92
2023/11/30 21:39:45;;;;;;;14.93;7.53;;;;;;;;;;5046785;28;20057;-92
2023/11/30 21:42:26;;;;;;;22.55;9.05;;;;;;;;;;5046334;28;20056;-92
2023/11/30 21:45:08;;;;;;;15.52;7.25;;;;;;;;;;5049351;28;20068;-92
2023/11/30 21:47:55;;;;;;;16.15;8.20;;;;;;;;;;5050706;28;20160;-91
2023/11/30 21:50:52;;;;;;;12.48;7.13;;;;;;;;;;5057004;28;20078;-92
2023/11/30 21:53:34;;;;;;;20.25;7.47;;;;;;;;;;5054420;28;20101;-92
2023/11/30 21:56:18;;;;;;;19.58;7.97;;;;;;;;;;5048350;28;20097;-91
2023/11/30 21:59:00;;;;;;;18.77;8.27;;;;;;;;;;5050545;28;20044;-91
2023/11/30 22:01:44;;;;;;;14.77;6.05;;;;;;;;;;5049497;28;20037;-91
2023/11/30 22:04:25;;;;;;;14.20;8.07;;;;;;;;;;5046867;28;20041;-92
2023/11/30 22:07:06;;;;;;;14.57;6.15;;;;;;;;;;5048849;28;20095;-93
2023/11/30 22:09:46;;;;;;;15.68;7.03;;;;;;;;;;5046815;28;20037;-91
2023/11/30 22:12:32;;;;;;;16.52;7.50;;;;;;;;;;5062601;28;20096;-91
2023/11/30 22:15:14;;;;;;;13.80;6.53;;;;;;;;;;5048534;28;20059;-92
2023/11/30 22:17:56;;;;;;;17.02;6.75;;;;;;;;;;5044598;28;20052;-92
2023/11/30 22:20:44;;;;;;;15.02;7.30;;;;;;;;;;5049453;28;20091;-91
2023/11/30 22:23:27;;;;;;;12.48;6.78;;;;;;;;;;5049204;28;20084;-91
2023/11/30 22:26:08;;;;;;;11.45;5.72;;;;;;;;;;5047887;28;20051;-91
2023/11/30 22:28:49;;;;;;;16.08;7.13;;;;;;;;;;5046889;28;20109;-92
2023/11/30 22:31:33;;;;;;;11.07;6.35;;;;;;;;;;5047977;28;20049;-92
2023/11/30 22:34:17;;;;;;;11.10;6.70;;;;;;;;;;5047753;28;20294;-93
2023/11/30 22:36:57;;;;;;;14.68;6.80;;;;;;;;;;5046473;28;20042;-92
2023/11/30 22:39:39;;;;;;;16.55;7.38;;;;;;;;;;5046283;28;20033;-91
2023/11/30 22:42:23;;;;;;;16.02;6.63;;;;;;;;;;5046577;28;20088;-91
2023/11/30 22:45:04;;;;;;;16.35;6.80;;;;;;;;;;5044418;28;20076;-91
2023/11/30 22:47:47;;;;;;;14.10;6.85;;;;;;;;;;5047958;28;20034;-91
2023/11/30 22:50:28;;;;;;;13.10;6.18;;;;;;;;;;5045882;28;20033;-91
2023/11/30 22:53:10;;;;;;;15.50;7.25;;;;;;;;;;5046734;28;20041;-92
2023/11/30 22:55:52;;;;;;;14.75;7.28;;;;;;;;;;5051198;28;20297;-91
2023/11/30 22:58:28;;;;;;;12.60;6.28;;;;;;;;;;5049808;28;20071;-91
2023/11/30 23:01:09;;;;;;;16.38;8.70;;;;;;;;;;5045982;28;20046;-92
2023/11/30 23:03:50;;;;;;;11.23;5.97;;;;;;;;;;5047650;28;20069;-92
2023/11/30 23:06:31;;;;;;;14.50;5.82;;;;;;;;;;5050617;28;20072;-91
2023/11/30 23:09:11;;;;;;;12.68;6.25;;;;;;;;;;5049683;28;20100;-92
2023/11/30 23:11:58;;;;;;;12.70;6.47;;;;;;;;;;5048913;28;20062;-92
2023/11/30 23:14:39;;;;;;;13.10;5.03;;;;;;;;;;5032403;28;20049;-92
2023/11/30 23:17:59;;;;;;;12.68;5.68;;;;;;;;;;5044016;27;24417;-92
2023/11/30 23:20:41;;;;;;;14.48;6.80;;;;;;;;;;5043928;28;20049;-91
2023/11/30 23:23:26;;;;;;;20.13;7.50;;;;;;;;;;5057591;28;20053;-91
2023/11/30 23:26:08;;;;;;;24.35;8.23;;;;;;;;;;5054858;28;20041;-92
2023/11/30 23:28:53;;;;;;;11.48;5.63;;;;;;;;;;5045394;28;20026;-92
2023/11/30 23:31:37;;;;;;;14.77;6.45;;;;;;;;;;5045657;28;20060;-92
2023/11/30 23:34:19;;;;;;;12.10;6.22;;;;;;;;;;5042083;28;20041;-91
2023/11/30 23:37:03;;;;;;;17.42;6.90;;;;;;;;;;5044014;28;20243;-91
2023/11/30 23:39:47;;;;;;;12.95;6.55;;;;;;;;;;5050312;28;20081;-92
2023/11/30 23:42:28;;;;;;;9.75;5.55;;;;;;;;;;5041153;28;20065;-91
2023/11/30 23:45:02;;;;;;;19.90;6.65;;;;;;;;;;5042270;28;20126;-91
2023/11/30 23:47:46;;;;;;;13.30;6.18;;;;;;;;;;5050942;28;20092;-91
2023/11/30 23:50:20;;;;;;;13.85;6.90;;;;;;;;;;5044671;28;20046;-91
2023/11/30 23:53:01;;;;;;;14.73;7.05;;;;;;;;;;5048953;28;20042;-92
2023/11/30 23:55:42;;;;;;;14.82;6.78;;;;;;;;;;5042715;28;20049;-92
2023/11/30 23:58:23;;;;;;;21.58;7.05;;;;;;;;;;5041867;28;20042;-92
